Observations for PRATICA DI MARE, Italy (LIRE)

LIRE 260455Z 03005KT CAVOK 22/20 Q1016 RMK SKC VIS MIN 9999 WIND THR13 02003KT WIND THR31 /////KT BLU   
LIRE 260355Z 03007KT CAVOK 22/20 Q1016 RMK SKC VIS MIN 9999 WIND THR13 03007KT WIND THR31/////KT BLU
LIRE 260255Z 03007KT CAVOK 22/21 Q1015 RMK SKC VIS MIN 9999 WIND THR13 WIND THR31 BLU   
LIRE 260155Z 02003KT CAVOK 23/21 Q1016 RMK SKC VIS MIN 9999 WIND THR13 35004KT WIND THR31 /////KT BLU   
LIRE 260055Z 01005KT CAVOK 23/21 Q1016 RMK SKC VIS MIN 9999 WIND THR13 32004KT WIND THR31 /////KT BLU   
LIRE 252355Z 01006KT CAVOK 23/21 Q1016 RMK SKC VIS MIN 9999 WIND THR13 35003KT WIND THR31 /////KT BLU   
LIRE 252255Z 01004KT CAVOK 23/22 Q1016 RMK SKC VIS MIN 9999 WIND THR13 03004KT WIND THR31/////KT BLU
LIRE 252155Z 36004KT CAVOK 24/21 Q1015 RMK SKC VIS MIN 9999 WIND THR13 01004KT WIND THR31 /////KT BLU   
LIRE 252055Z 34003KT CAVOK 25/23 Q1016 RMK SKC VIS MIN 9999 WIND THR13 33003KT WIND THR31 /////KT BLU   
LIRE 251955Z 34003KT CAVOK 25/23 Q1015 RMK SKC VIS MIN 9999 WIND THR13 33003KT WIND THR31 /////KT BLU   
LIRE 251855Z 33004KT CAVOK 26/24 Q1016 RMK SKC VIS MIN 9999 WIND THR13 33004KT WIND THR31 /////KT BLU   
LIRE 251755Z 29006KT CAVOK 27/25 Q1016 RMK SKC VIS MIN 9999 WIND THR13 30005KT WIND THR31 /////KT BLU   
LIRE 251655Z 28008KT CAVOK 27/25 Q1015 RMK FEW FEW080 VIS MIN 9999 WIND THR13 29006KT WIND THR31 /////KT BLU
LIRE 251555Z 28009KT CAVOK 28/25 Q1015 RMK FEW FEW080 VIS MIN 9999 WIND THR13 29008KT WIND THR31 /////KT BLU
LIRE 251455Z 24008KT 9999 FEW070 28/17 Q1015 RMK FEW VIS MIN 9999 WIND THR13 26007KT WIND THR31 /////KT BLU 
LIRE 251355Z 03009KT 9999 FEW023 27/11 Q1015 RMK SCT VIS MIN 9999 WIND THR13 07008KT WIND THR31 /////KT BLU 
LIRE 251255Z 08011KT 9999 FEW023CB SCT025 28/16 Q1016 RMK BKN VIS MIN 9999 WIND THR13 08013KT WIND THR31 /////KT BLU
LIRE 251234Z 24006G18KT 9999 FEW025CB SCT060 28/23 Q1016 RMK SCT VIS MIN 9999 WIND THR13 24005KT WIND THR31 BLU
LIRE 251155Z 24009KT CAVOK 28/24 Q1016 RMK FEW FEW200 VIS MIN 9999 WIND THR13 23009KT WIND THR31 /////KT BLU
LIRE 251055Z 25008KT CAVOK 28/23 Q1016 RMK FEW FEW200 VIS MIN 9999 WIND THR13 25009KT WIND THR31 /////KT BLU
LIRE 250955Z 23006KT CAVOK 27/19 Q1017 RMK FEW FEW200 VIS MIN 9999 WIND THR13 23005KT WIND THR31/////KT BLU 
LIRE 250855Z 22006KT CAVOK 27/19 Q1016 RMK FEW FEW200 VIS MIN 9999 WIND THR13 23006KT WIND THR31 /////KT BLU
LIRE 250755Z 08002KT CAVOK 27/18 Q1016 RMK SCT SCT200 VIS MIN 9999 WIND THR13 07002KT WIND THR31 /////KT BLU
LIRE 250655Z 04005KT CAVOK 24/18 Q1016 RMK SKC VIS MIN 9999 WIND THR13 05003KT WIND THR31 /////KT BLU   
LIRE 250555Z 04006KT CAVOK 23/17 Q1016 RMK SKC VIS MIN 9999 WIND THR13 04006KT WIND THR31 /////KT BLU   
LIRE 250455Z 02006KT CAVOK 22/20 Q1015 RMK SKC VIS MIN 9999 WIND THR13 04004KT WIND THR31 /////KT BLU